Аэропорт
Худжанд (UTDL)

 UTDL / LBD
ЗЦ Центральная Азия
Душанбе (UTDD)
Душанбе (UTDD)
 40.21540, 69.69470  / 1450 ft

 UTDL 161600Z 06010G17MPS 9999 FEW086 09/M01 Q1012 R08/CLRD70 NOSIG RMK QFE720/0960
 UTDL 160600Z 1607/1616 08010MPS 6000 NSC TEMPO 1607/1616 07015MPS
UTDL_aip_1705
показать схемы

2019 © VATRUS division (Privacy Policy)